sensor_id;sensor_type;location;lat;lon;timestamp;P1;durP1;ratioP1;P2;durP2;ratioP2
64157;SDS011;50449;51.528;5.076;2023-05-08T00:00:47;63.70;;;60.05;;
64157;SDS011;50449;51.528;5.076;2023-05-08T00:03:12;65.60;;;62.00;;
64157;SDS011;50449;51.528;5.076;2023-05-08T00:05:40;61.85;;;58.53;;
64157;SDS011;50449;51.528;5.076;2023-05-08T00:08:05;63.25;;;59.65;;
64157;SDS011;50449;51.528;5.076;2023-05-08T00:10:31;64.35;;;60.72;;
64157;SDS011;50449;51.528;5.076;2023-05-08T00:12:57;64.63;;;61.05;;
64157;SDS011;50449;51.528;5.076;2023-05-08T00:15:23;64.60;;;60.85;;
64157;SDS011;50449;51.528;5.076;2023-05-08T00:17:48;63.17;;;59.88;;
64157;SDS011;50449;51.528;5.076;2023-05-08T00:20:14;61.40;;;58.05;;
64157;SDS011;50449;51.528;5.076;2023-05-08T00:22:39;63.63;;;60.20;;
64157;SDS011;50449;51.528;5.076;2023-05-08T00:25:05;62.13;;;58.53;;
64157;SDS011;50449;51.528;5.076;2023-05-08T00:27:31;65.03;;;61.60;;
64157;SDS011;50449;51.528;5.076;2023-05-08T00:29:57;62.17;;;58.88;;
64157;SDS011;50449;51.528;5.076;2023-05-08T00:32:22;66.03;;;62.42;;
64157;SDS011;50449;51.528;5.076;2023-05-08T00:34:48;61.80;;;58.20;;
64157;SDS011;50449;51.528;5.076;2023-05-08T00:37:14;62.33;;;58.92;;
64157;SDS011;50449;51.528;5.076;2023-05-08T00:39:39;63.05;;;59.53;;
64157;SDS011;50449;51.528;5.076;2023-05-08T00:42:04;63.10;;;59.60;;
64157;SDS011;50449;51.528;5.076;2023-05-08T00:44:30;61.92;;;58.42;;
64157;SDS011;50449;51.528;5.076;2023-05-08T00:46:56;62.88;;;59.40;;
64157;SDS011;50449;51.528;5.076;2023-05-08T00:49:21;62.92;;;59.33;;
64157;SDS011;50449;51.528;5.076;2023-05-08T00:51:48;65.78;;;62.08;;
64157;SDS011;50449;51.528;5.076;2023-05-08T00:54:16;60.88;;;57.58;;
64157;SDS011;50449;51.528;5.076;2023-05-08T00:56:42;62.30;;;58.80;;
64157;SDS011;50449;51.528;5.076;2023-05-08T00:59:10;64.38;;;60.72;;
64157;SDS011;50449;51.528;5.076;2023-05-08T01:01:37;62.78;;;59.38;;
64157;SDS011;50449;51.528;5.076;2023-05-08T01:04:04;64.13;;;60.63;;
64157;SDS011;50449;51.528;5.076;2023-05-08T01:06:31;65.90;;;62.25;;
64157;SDS011;50449;51.528;5.076;2023-05-08T01:08:58;64.43;;;60.60;;
64157;SDS011;50449;51.528;5.076;2023-05-08T01:16:44;61.10;;;57.72;;
64157;SDS011;50449;51.528;5.076;2023-05-08T01:19:26;60.67;;;57.17;;
64157;SDS011;50449;51.528;5.076;2023-05-08T01:32:33;61.90;;;58.17;;
64157;SDS011;50449;51.528;5.076;2023-05-08T01:38:09;60.50;;;56.90;;
64157;SDS011;50449;51.528;5.076;2023-05-08T01:40:50;65.13;;;61.55;;
64157;SDS011;50449;51.528;5.076;2023-05-08T01:46:10;61.03;;;56.90;;
64157;SDS011;50449;51.528;5.076;2023-05-08T01:48:50;63.13;;;59.63;;
64157;SDS011;50449;51.528;5.076;2023-05-08T01:51:21;63.17;;;59.60;;
64157;SDS011;50449;51.528;5.076;2023-05-08T01:53:57;61.13;;;57.70;;
64157;SDS011;50449;51.528;5.076;2023-05-08T01:56:25;62.70;;;58.92;;
64157;SDS011;50449;51.528;5.076;2023-05-08T01:58:54;59.67;;;56.28;;
64157;SDS011;50449;51.528;5.076;2023-05-08T02:01:22;64.93;;;61.03;;
64157;SDS011;50449;51.528;5.076;2023-05-08T02:03:49;64.25;;;60.45;;
64157;SDS011;50449;51.528;5.076;2023-05-08T02:06:16;64.07;;;60.20;;
64157;SDS011;50449;51.528;5.076;2023-05-08T02:08:44;59.67;;;56.38;;
64157;SDS011;50449;51.528;5.076;2023-05-08T02:11:11;62.13;;;58.63;;
64157;SDS011;50449;51.528;5.076;2023-05-08T02:13:38;61.67;;;58.15;;
64157;SDS011;50449;51.528;5.076;2023-05-08T02:16:05;61.22;;;57.83;;
64157;SDS011;50449;51.528;5.076;2023-05-08T02:18:33;60.47;;;57.05;;
64157;SDS011;50449;51.528;5.076;2023-05-08T02:21:03;64.65;;;60.90;;
64157;SDS011;50449;51.528;5.076;2023-05-08T02:23:30;63.80;;;60.20;;
64157;SDS011;50449;51.528;5.076;2023-05-08T02:25:58;63.00;;;59.40;;
64157;SDS011;50449;51.528;5.076;2023-05-08T02:28:25;65.03;;;61.05;;
64157;SDS011;50449;51.528;5.076;2023-05-08T02:30:53;61.80;;;58.05;;
64157;SDS011;50449;51.528;5.076;2023-05-08T02:33:20;61.63;;;58.13;;
64157;SDS011;50449;51.528;5.076;2023-05-08T02:35:47;63.65;;;60.03;;
64157;SDS011;50449;51.528;5.076;2023-05-08T02:38:14;61.17;;;57.80;;
64157;SDS011;50449;51.528;5.076;2023-05-08T02:40:45;61.35;;;57.42;;
64157;SDS011;50449;51.528;5.076;2023-05-08T02:43:13;61.42;;;57.10;;
64157;SDS011;50449;51.528;5.076;2023-05-08T02:45:45;60.72;;;57.08;;
64157;SDS011;50449;51.528;5.076;2023-05-08T02:48:21;62.50;;;58.90;;
64157;SDS011;50449;51.528;5.076;2023-05-08T02:51:11;61.05;;;57.45;;
64157;SDS011;50449;51.528;5.076;2023-05-08T02:53:47;60.65;;;57.45;;
64157;SDS011;50449;51.528;5.076;2023-05-08T02:56:38;62.70;;;59.28;;
64157;SDS011;50449;51.528;5.076;2023-05-08T03:01:49;61.55;;;58.15;;
64157;SDS011;50449;51.528;5.076;2023-05-08T03:04:21;58.95;;;55.53;;
64157;SDS011;50449;51.528;5.076;2023-05-08T03:06:53;59.83;;;56.22;;
64157;SDS011;50449;51.528;5.076;2023-05-08T03:09:22;61.60;;;58.05;;
64157;SDS011;50449;51.528;5.076;2023-05-08T03:11:52;60.00;;;56.47;;
64157;SDS011;50449;51.528;5.076;2023-05-08T03:14:26;63.00;;;59.13;;
64157;SDS011;50449;51.528;5.076;2023-05-08T03:16:53;62.05;;;58.33;;
64157;SDS011;50449;51.528;5.076;2023-05-08T03:19:25;59.70;;;56.15;;
64157;SDS011;50449;51.528;5.076;2023-05-08T03:21:54;60.17;;;56.65;;
64157;SDS011;50449;51.528;5.076;2023-05-08T03:24:21;58.90;;;55.50;;
64157;SDS011;50449;51.528;5.076;2023-05-08T03:26:49;57.70;;;54.60;;
64157;SDS011;50449;51.528;5.076;2023-05-08T03:29:15;60.80;;;57.20;;
64157;SDS011;50449;51.528;5.076;2023-05-08T03:31:42;59.80;;;56.20;;
64157;SDS011;50449;51.528;5.076;2023-05-08T03:34:09;60.05;;;56.30;;
64157;SDS011;50449;51.528;5.076;2023-05-08T03:36:37;62.05;;;58.38;;
64157;SDS011;50449;51.528;5.076;2023-05-08T03:39:03;61.70;;;57.88;;
64157;SDS011;50449;51.528;5.076;2023-05-08T03:41:29;60.95;;;56.95;;
64157;SDS011;50449;51.528;5.076;2023-05-08T03:43:55;61.75;;;58.15;;
64157;SDS011;50449;51.528;5.076;2023-05-08T03:46:21;60.70;;;57.08;;
64157;SDS011;50449;51.528;5.076;2023-05-08T03:48:47;57.63;;;53.95;;
64157;SDS011;50449;51.528;5.076;2023-05-08T03:51:14;61.55;;;57.85;;
64157;SDS011;50449;51.528;5.076;2023-05-08T03:53:40;60.22;;;56.42;;
64157;SDS011;50449;51.528;5.076;2023-05-08T03:56:05;62.33;;;58.67;;
64157;SDS011;50449;51.528;5.076;2023-05-08T04:01:21;59.10;;;55.63;;
64157;SDS011;50449;51.528;5.076;2023-05-08T04:06:32;59.03;;;55.38;;
64157;SDS011;50449;51.528;5.076;2023-05-08T04:09:12;60.60;;;57.08;;
64157;SDS011;50449;51.528;5.076;2023-05-08T04:14:29;69.93;;;63.35;;
64157;SDS011;50449;51.528;5.076;2023-05-08T04:17:01;66.10;;;61.20;;
64157;SDS011;50449;51.528;5.076;2023-05-08T04:19:29;63.83;;;59.25;;
64157;SDS011;50449;51.528;5.076;2023-05-08T04:22:01;59.72;;;55.97;;
64157;SDS011;50449;51.528;5.076;2023-05-08T04:24:30;61.95;;;58.13;;
64157;SDS011;50449;51.528;5.076;2023-05-08T04:26:58;58.42;;;54.90;;
64157;SDS011;50449;51.528;5.076;2023-05-08T04:29:25;59.45;;;55.70;;
64157;SDS011;50449;51.528;5.076;2023-05-08T04:31:51;58.97;;;55.28;;
64157;SDS011;50449;51.528;5.076;2023-05-08T04:34:17;62.03;;;58.30;;
64157;SDS011;50449;51.528;5.076;2023-05-08T04:36:43;63.33;;;59.35;;
64157;SDS011;50449;51.528;5.076;2023-05-08T04:39:08;66.88;;;62.35;;
64157;SDS011;50449;51.528;5.076;2023-05-08T04:41:34;65.35;;;61.05;;
64157;SDS011;50449;51.528;5.076;2023-05-08T04:43:59;62.67;;;58.50;;
64157;SDS011;50449;51.528;5.076;2023-05-08T04:46:26;62.17;;;58.08;;
64157;SDS011;50449;51.528;5.076;2023-05-08T04:48:52;59.38;;;55.70;;
64157;SDS011;50449;51.528;5.076;2023-05-08T04:51:17;60.95;;;56.95;;
64157;SDS011;50449;51.528;5.076;2023-05-08T04:53:43;64.60;;;60.65;;
64157;SDS011;50449;51.528;5.076;2023-05-08T04:56:08;60.88;;;56.58;;
64157;SDS011;50449;51.528;5.076;2023-05-08T04:58:33;58.28;;;54.50;;
64157;SDS011;50449;51.528;5.076;2023-05-08T05:01:02;59.40;;;55.60;;
64157;SDS011;50449;51.528;5.076;2023-05-08T05:03:28;59.65;;;55.85;;
64157;SDS011;50449;51.528;5.076;2023-05-08T05:05:57;60.13;;;56.28;;
64157;SDS011;50449;51.528;5.076;2023-05-08T05:08:23;60.17;;;55.72;;
64157;SDS011;50449;51.528;5.076;2023-05-08T05:10:49;58.30;;;54.55;;
64157;SDS011;50449;51.528;5.076;2023-05-08T05:13:15;64.78;;;59.80;;
64157;SDS011;50449;51.528;5.076;2023-05-08T05:15:43;60.00;;;55.60;;
64157;SDS011;50449;51.528;5.076;2023-05-08T05:18:08;66.70;;;61.30;;
64157;SDS011;50449;51.528;5.076;2023-05-08T05:20:34;65.55;;;60.45;;
64157;SDS011;50449;51.528;5.076;2023-05-08T05:23:00;63.53;;;58.70;;
64157;SDS011;50449;51.528;5.076;2023-05-08T05:25:25;64.43;;;59.03;;
64157;SDS011;50449;51.528;5.076;2023-05-08T05:27:51;65.13;;;59.42;;
64157;SDS011;50449;51.528;5.076;2023-05-08T05:30:16;64.18;;;59.30;;
64157;SDS011;50449;51.528;5.076;2023-05-08T05:32:42;65.03;;;59.65;;
64157;SDS011;50449;51.528;5.076;2023-05-08T05:35:08;65.57;;;60.25;;
64157;SDS011;50449;51.528;5.076;2023-05-08T05:37:33;65.07;;;59.97;;
64157;SDS011;50449;51.528;5.076;2023-05-08T05:39:59;63.88;;;59.00;;
64157;SDS011;50449;51.528;5.076;2023-05-08T05:42:25;62.17;;;57.63;;
64157;SDS011;50449;51.528;5.076;2023-05-08T05:44:50;64.40;;;59.38;;
64157;SDS011;50449;51.528;5.076;2023-05-08T05:47:15;64.80;;;59.47;;
64157;SDS011;50449;51.528;5.076;2023-05-08T05:49:41;63.45;;;58.47;;
64157;SDS011;50449;51.528;5.076;2023-05-08T05:52:10;65.45;;;60.42;;
64157;SDS011;50449;51.528;5.076;2023-05-08T05:54:36;66.95;;;61.85;;
64157;SDS011;50449;51.528;5.076;2023-05-08T05:57:02;68.25;;;62.78;;
64157;SDS011;50449;51.528;5.076;2023-05-08T05:59:27;67.53;;;57.63;;
64157;SDS011;50449;51.528;5.076;2023-05-08T06:01:53;63.00;;;58.08;;
64157;SDS011;50449;51.528;5.076;2023-05-08T06:04:18;59.33;;;55.13;;
64157;SDS011;50449;51.528;5.076;2023-05-08T06:06:44;60.95;;;56.15;;
64157;SDS011;50449;51.528;5.076;2023-05-08T06:09:09;58.22;;;53.72;;
64157;SDS011;50449;51.528;5.076;2023-05-08T06:11:35;60.42;;;56.08;;
64157;SDS011;50449;51.528;5.076;2023-05-08T06:14:00;60.15;;;55.45;;
64157;SDS011;50449;51.528;5.076;2023-05-08T06:16:25;59.35;;;55.35;;
64157;SDS011;50449;51.528;5.076;2023-05-08T06:18:51;60.22;;;55.83;;
64157;SDS011;50449;51.528;5.076;2023-05-08T06:21:16;59.47;;;55.22;;
64157;SDS011;50449;51.528;5.076;2023-05-08T06:23:42;60.05;;;56.03;;
64157;SDS011;50449;51.528;5.076;2023-05-08T06:26:07;62.47;;;58.08;;
64157;SDS011;50449;51.528;5.076;2023-05-08T06:28:33;60.30;;;56.00;;
64157;SDS011;50449;51.528;5.076;2023-05-08T06:30:58;60.22;;;55.97;;
64157;SDS011;50449;51.528;5.076;2023-05-08T06:33:23;57.08;;;53.17;;
64157;SDS011;50449;51.528;5.076;2023-05-08T06:35:49;57.58;;;53.78;;
64157;SDS011;50449;51.528;5.076;2023-05-08T06:38:14;62.42;;;57.95;;
64157;SDS011;50449;51.528;5.076;2023-05-08T06:40:41;59.67;;;55.53;;
64157;SDS011;50449;51.528;5.076;2023-05-08T06:43:10;67.47;;;61.63;;
64157;SDS011;50449;51.528;5.076;2023-05-08T06:45:36;58.65;;;54.65;;
64157;SDS011;50449;51.528;5.076;2023-05-08T06:48:01;61.88;;;57.55;;
64157;SDS011;50449;51.528;5.076;2023-05-08T06:50:27;60.33;;;56.30;;
64157;SDS011;50449;51.528;5.076;2023-05-08T06:52:52;57.47;;;53.47;;
64157;SDS011;50449;51.528;5.076;2023-05-08T06:55:18;61.95;;;57.13;;
64157;SDS011;50449;51.528;5.076;2023-05-08T06:57:43;62.05;;;57.38;;
64157;SDS011;50449;51.528;5.076;2023-05-08T07:00:09;58.17;;;53.72;;
64157;SDS011;50449;51.528;5.076;2023-05-08T07:02:35;59.17;;;54.67;;
64157;SDS011;50449;51.528;5.076;2023-05-08T07:05:00;62.90;;;58.33;;
64157;SDS011;50449;51.528;5.076;2023-05-08T07:07:26;58.90;;;54.90;;
64157;SDS011;50449;51.528;5.076;2023-05-08T07:09:52;60.47;;;56.00;;
64157;SDS011;50449;51.528;5.076;2023-05-08T07:12:17;59.55;;;55.22;;
64157;SDS011;50449;51.528;5.076;2023-05-08T07:14:43;56.55;;;52.60;;
64157;SDS011;50449;51.528;5.076;2023-05-08T07:17:09;61.20;;;56.60;;
64157;SDS011;50449;51.528;5.076;2023-05-08T07:19:34;58.75;;;54.45;;
64157;SDS011;50449;51.528;5.076;2023-05-08T07:22:00;60.85;;;56.28;;
64157;SDS011;50449;51.528;5.076;2023-05-08T07:24:26;59.17;;;54.90;;
64157;SDS011;50449;51.528;5.076;2023-05-08T07:26:52;58.13;;;53.95;;
64157;SDS011;50449;51.528;5.076;2023-05-08T07:29:17;59.42;;;55.28;;
64157;SDS011;50449;51.528;5.076;2023-05-08T07:31:44;56.90;;;52.75;;
64157;SDS011;50449;51.528;5.076;2023-05-08T07:34:10;67.07;;;61.40;;
64157;SDS011;50449;51.528;5.076;2023-05-08T07:36:36;70.78;;;64.97;;
64157;SDS011;50449;51.528;5.076;2023-05-08T07:39:02;63.60;;;58.58;;
64157;SDS011;50449;51.528;5.076;2023-05-08T07:41:28;58.38;;;54.45;;
64157;SDS011;50449;51.528;5.076;2023-05-08T07:43:53;63.33;;;58.08;;
64157;SDS011;50449;51.528;5.076;2023-05-08T07:46:19;57.80;;;53.53;;
64157;SDS011;50449;51.528;5.076;2023-05-08T07:48:45;61.13;;;56.47;;
64157;SDS011;50449;51.528;5.076;2023-05-08T07:51:11;62.97;;;58.28;;
64157;SDS011;50449;51.528;5.076;2023-05-08T07:53:37;69.50;;;63.63;;
64157;SDS011;50449;51.528;5.076;2023-05-08T07:56:02;61.25;;;56.70;;
64157;SDS011;50449;51.528;5.076;2023-05-08T07:58:28;58.75;;;54.45;;
64157;SDS011;50449;51.528;5.076;2023-05-08T08:00:53;67.65;;;61.40;;
64157;SDS011;50449;51.528;5.076;2023-05-08T08:03:19;64.50;;;59.42;;
64157;SDS011;50449;51.528;5.076;2023-05-08T08:05:44;68.57;;;62.53;;
64157;SDS011;50449;51.528;5.076;2023-05-08T08:08:09;64.60;;;59.90;;
64157;SDS011;50449;51.528;5.076;2023-05-08T08:10:35;61.65;;;56.90;;
64157;SDS011;50449;51.528;5.076;2023-05-08T08:13:01;60.25;;;55.97;;
64157;SDS011;50449;51.528;5.076;2023-05-08T08:15:26;71.80;;;64.50;;
64157;SDS011;50449;51.528;5.076;2023-05-08T08:17:54;60.33;;;55.92;;
64157;SDS011;50449;51.528;5.076;2023-05-08T08:20:20;60.95;;;56.20;;
64157;SDS011;50449;51.528;5.076;2023-05-08T08:22:46;62.78;;;57.42;;
64157;SDS011;50449;51.528;5.076;2023-05-08T08:25:11;65.32;;;59.88;;
64157;SDS011;50449;51.528;5.076;2023-05-08T08:27:37;62.35;;;57.60;;
64157;SDS011;50449;51.528;5.076;2023-05-08T08:30:03;63.80;;;59.08;;
64157;SDS011;50449;51.528;5.076;2023-05-08T08:32:29;66.95;;;61.15;;
64157;SDS011;50449;51.528;5.076;2023-05-08T08:34:54;71.25;;;64.60;;
64157;SDS011;50449;51.528;5.076;2023-05-08T08:37:20;64.45;;;59.33;;
64157;SDS011;50449;51.528;5.076;2023-05-08T08:39:46;62.72;;;58.08;;
64157;SDS011;50449;51.528;5.076;2023-05-08T08:42:12;63.63;;;58.60;;
64157;SDS011;50449;51.528;5.076;2023-05-08T08:44:38;67.35;;;61.60;;
64157;SDS011;50449;51.528;5.076;2023-05-08T08:47:03;65.40;;;60.25;;
64157;SDS011;50449;51.528;5.076;2023-05-08T08:49:30;70.60;;;64.32;;
64157;SDS011;50449;51.528;5.076;2023-05-08T08:52:02;68.05;;;61.92;;
64157;SDS011;50449;51.528;5.076;2023-05-08T08:54:35;63.92;;;58.95;;
64157;SDS011;50449;51.528;5.076;2023-05-08T08:57:04;69.65;;;63.42;;
64157;SDS011;50449;51.528;5.076;2023-05-08T08:59:32;65.20;;;60.33;;
64157;SDS011;50449;51.528;5.076;2023-05-08T09:01:59;62.95;;;57.78;;
64157;SDS011;50449;51.528;5.076;2023-05-08T09:04:30;66.40;;;61.05;;
64157;SDS011;50449;51.528;5.076;2023-05-08T09:06:56;64.13;;;59.17;;
64157;SDS011;50449;51.528;5.076;2023-05-08T09:09:22;64.88;;;59.95;;
64157;SDS011;50449;51.528;5.076;2023-05-08T09:11:48;63.55;;;58.53;;
64157;SDS011;50449;51.528;5.076;2023-05-08T09:14:16;66.88;;;61.20;;
64157;SDS011;50449;51.528;5.076;2023-05-08T09:16:41;69.28;;;63.72;;
64157;SDS011;50449;51.528;5.076;2023-05-08T09:19:07;66.22;;;60.95;;
64157;SDS011;50449;51.528;5.076;2023-05-08T09:21:33;69.18;;;63.53;;
64157;SDS011;50449;51.528;5.076;2023-05-08T09:26:36;67.28;;;62.03;;
64157;SDS011;50449;51.528;5.076;2023-05-08T09:29:16;70.38;;;64.60;;
64157;SDS011;50449;51.528;5.076;2023-05-08T09:31:45;65.38;;;60.15;;
64157;SDS011;50449;51.528;5.076;2023-05-08T09:34:23;70.93;;;65.03;;
64157;SDS011;50449;51.528;5.076;2023-05-08T09:39:33;71.47;;;65.32;;
64157;SDS011;50449;51.528;5.076;2023-05-08T09:41:59;64.10;;;58.92;;
64157;SDS011;50449;51.528;5.076;2023-05-08T09:44:26;68.22;;;62.58;;
64157;SDS011;50449;51.528;5.076;2023-05-08T09:47:00;66.63;;;61.63;;
64157;SDS011;50449;51.528;5.076;2023-05-08T09:49:34;64.70;;;59.83;;
64157;SDS011;50449;51.528;5.076;2023-05-08T09:51:59;66.90;;;61.72;;
64157;SDS011;50449;51.528;5.076;2023-05-08T09:54:25;66.80;;;61.67;;
64157;SDS011;50449;51.528;5.076;2023-05-08T09:56:50;72.65;;;66.65;;
64157;SDS011;50449;51.528;5.076;2023-05-08T09:59:23;68.22;;;63.00;;
64157;SDS011;50449;51.528;5.076;2023-05-08T10:01:53;69.53;;;63.88;;
64157;SDS011;50449;51.528;5.076;2023-05-08T10:04:32;70.80;;;65.07;;
64157;SDS011;50449;51.528;5.076;2023-05-08T10:06:59;66.25;;;60.72;;
64157;SDS011;50449;51.528;5.076;2023-05-08T10:09:24;65.45;;;60.42;;
64157;SDS011;50449;51.528;5.076;2023-05-08T10:11:50;60.35;;;56.10;;
64157;SDS011;50449;51.528;5.076;2023-05-08T10:14:17;73.25;;;67.22;;
64157;SDS011;50449;51.528;5.076;2023-05-08T10:16:43;68.63;;;63.40;;
64157;SDS011;50449;51.528;5.076;2023-05-08T10:19:14;66.50;;;61.83;;
64157;SDS011;50449;51.528;5.076;2023-05-08T10:21:42;69.47;;;64.38;;
64157;SDS011;50449;51.528;5.076;2023-05-08T10:24:15;68.68;;;63.58;;
64157;SDS011;50449;51.528;5.076;2023-05-08T10:26:43;71.85;;;65.95;;
64157;SDS011;50449;51.528;5.076;2023-05-08T10:29:20;69.07;;;63.72;;
64157;SDS011;50449;51.528;5.076;2023-05-08T10:31:49;68.97;;;63.80;;
64157;SDS011;50449;51.528;5.076;2023-05-08T10:34:19;69.72;;;64.30;;
64157;SDS011;50449;51.528;5.076;2023-05-08T10:36:47;69.20;;;63.42;;
64157;SDS011;50449;51.528;5.076;2023-05-08T10:39:16;70.68;;;65.47;;
64157;SDS011;50449;51.528;5.076;2023-05-08T10:41:43;67.75;;;62.72;;
64157;SDS011;50449;51.528;5.076;2023-05-08T10:44:09;69.78;;;64.75;;
64157;SDS011;50449;51.528;5.076;2023-05-08T10:49:21;74.45;;;68.65;;
64157;SDS011;50449;51.528;5.076;2023-05-08T10:57:28;70.65;;;65.38;;
64157;SDS011;50449;51.528;5.076;2023-05-08T10:59:53;73.43;;;67.60;;
64157;SDS011;50449;51.528;5.076;2023-05-08T11:02:28;74.45;;;69.10;;
64157;SDS011;50449;51.528;5.076;2023-05-08T11:05:16;71.38;;;65.82;;
64157;SDS011;50449;51.528;5.076;2023-05-08T11:10:29;69.50;;;64.80;;
64157;SDS011;50449;51.528;5.076;2023-05-08T11:13:01;68.22;;;63.70;;
64157;SDS011;50449;51.528;5.076;2023-05-08T11:15:35;75.40;;;70.10;;
64157;SDS011;50449;51.528;5.076;2023-05-08T11:18:05;74.65;;;69.55;;
64157;SDS011;50449;51.528;5.076;2023-05-08T11:20:53;70.75;;;65.65;;
64157;SDS011;50449;51.528;5.076;2023-05-08T11:28:33;75.88;;;70.40;;
64157;SDS011;50449;51.528;5.076;2023-05-08T11:31:02;73.53;;;68.40;;
64157;SDS011;50449;51.528;5.076;2023-05-08T11:33:31;64.97;;;61.15;;
64157;SDS011;50449;51.528;5.076;2023-05-08T11:35:58;71.95;;;66.95;;
64157;SDS011;50449;51.528;5.076;2023-05-08T11:38:32;72.95;;;67.97;;
64157;SDS011;50449;51.528;5.076;2023-05-08T11:45:59;74.50;;;69.18;;
64157;SDS011;50449;51.528;5.076;2023-05-08T11:48:25;79.22;;;72.80;;
64157;SDS011;50449;51.528;5.076;2023-05-08T11:50:51;76.65;;;71.10;;
64157;SDS011;50449;51.528;5.076;2023-05-08T11:53:17;75.32;;;70.32;;
64157;SDS011;50449;51.528;5.076;2023-05-08T11:55:42;74.13;;;68.97;;
64157;SDS011;50449;51.528;5.076;2023-05-08T11:58:12;76.93;;;71.68;;
64157;SDS011;50449;51.528;5.076;2023-05-08T12:00:39;73.97;;;69.00;;
64157;SDS011;50449;51.528;5.076;2023-05-08T12:03:10;76.43;;;71.72;;
64157;SDS011;50449;51.528;5.076;2023-05-08T12:05:36;75.53;;;70.15;;
64157;SDS011;50449;51.528;5.076;2023-05-08T12:08:02;73.72;;;68.75;;
64157;SDS011;50449;51.528;5.076;2023-05-08T12:10:30;73.88;;;69.22;;
64157;SDS011;50449;51.528;5.076;2023-05-08T12:12:55;78.20;;;72.75;;
64157;SDS011;50449;51.528;5.076;2023-05-08T12:15:21;75.80;;;70.25;;
64157;SDS011;50449;51.528;5.076;2023-05-08T12:17:46;74.78;;;69.72;;
64157;SDS011;50449;51.528;5.076;2023-05-08T12:20:16;76.38;;;71.07;;
64157;SDS011;50449;51.528;5.076;2023-05-08T12:22:48;75.40;;;70.30;;
64157;SDS011;50449;51.528;5.076;2023-05-08T12:25:15;78.68;;;73.32;;
64157;SDS011;50449;51.528;5.076;2023-05-08T12:27:41;79.80;;;74.47;;
64157;SDS011;50449;51.528;5.076;2023-05-08T12:30:09;78.32;;;72.53;;
64157;SDS011;50449;51.528;5.076;2023-05-08T12:32:36;77.95;;;72.90;;
64157;SDS011;50449;51.528;5.076;2023-05-08T12:35:04;76.97;;;71.70;;
64157;SDS011;50449;51.528;5.076;2023-05-08T12:37:34;79.68;;;74.18;;
64157;SDS011;50449;51.528;5.076;2023-05-08T12:40:00;75.60;;;70.53;;
64157;SDS011;50449;51.528;5.076;2023-05-08T12:45:07;79.03;;;73.57;;
64157;SDS011;50449;51.528;5.076;2023-05-08T12:47:32;79.05;;;73.60;;
64157;SDS011;50449;51.528;5.076;2023-05-08T12:49:58;77.18;;;72.20;;
64157;SDS011;50449;51.528;5.076;2023-05-08T12:52:23;82.13;;;75.75;;
64157;SDS011;50449;51.528;5.076;2023-05-08T12:54:49;86.20;;;79.22;;
64157;SDS011;50449;51.528;5.076;2023-05-08T12:57:15;74.72;;;69.30;;
64157;SDS011;50449;51.528;5.076;2023-05-08T12:59:42;86.53;;;78.97;;
64157;SDS011;50449;51.528;5.076;2023-05-08T13:02:16;81.47;;;75.97;;
64157;SDS011;50449;51.528;5.076;2023-05-08T13:04:43;86.60;;;80.13;;
64157;SDS011;50449;51.528;5.076;2023-05-08T13:07:09;85.68;;;79.72;;
64157;SDS011;50449;51.528;5.076;2023-05-08T13:09:35;83.65;;;77.75;;
64157;SDS011;50449;51.528;5.076;2023-05-08T13:12:01;90.97;;;83.07;;
64157;SDS011;50449;51.528;5.076;2023-05-08T13:14:26;79.60;;;74.15;;
64157;SDS011;50449;51.528;5.076;2023-05-08T13:16:52;82.35;;;76.32;;
64157;SDS011;50449;51.528;5.076;2023-05-08T13:19:17;82.95;;;76.85;;
64157;SDS011;50449;51.528;5.076;2023-05-08T13:21:43;84.70;;;77.78;;
64157;SDS011;50449;51.528;5.076;2023-05-08T13:26:37;86.38;;;80.00;;
64157;SDS011;50449;51.528;5.076;2023-05-08T13:29:02;87.32;;;79.88;;
64157;SDS011;50449;51.528;5.076;2023-05-08T13:31:27;87.85;;;80.53;;
64157;SDS011;50449;51.528;5.076;2023-05-08T13:33:53;86.93;;;80.70;;
64157;SDS011;50449;51.528;5.076;2023-05-08T13:36:18;87.70;;;81.85;;
64157;SDS011;50449;51.528;5.076;2023-05-08T13:38:45;88.60;;;83.03;;
64157;SDS011;50449;51.528;5.076;2023-05-08T13:41:10;82.95;;;77.55;;
64157;SDS011;50449;51.528;5.076;2023-05-08T13:43:35;88.43;;;82.40;;
64157;SDS011;50449;51.528;5.076;2023-05-08T13:46:01;83.38;;;78.50;;
64157;SDS011;50449;51.528;5.076;2023-05-08T13:48:27;88.68;;;82.07;;
64157;SDS011;50449;51.528;5.076;2023-05-08T13:50:53;84.97;;;79.35;;
64157;SDS011;50449;51.528;5.076;2023-05-08T13:53:18;88.32;;;81.90;;
64157;SDS011;50449;51.528;5.076;2023-05-08T13:55:44;90.03;;;83.90;;
64157;SDS011;50449;51.528;5.076;2023-05-08T13:58:09;92.57;;;85.55;;
64157;SDS011;50449;51.528;5.076;2023-05-08T14:00:35;87.70;;;81.80;;
64157;SDS011;50449;51.528;5.076;2023-05-08T14:03:00;90.00;;;82.82;;
64157;SDS011;50449;51.528;5.076;2023-05-08T14:05:26;88.35;;;82.18;;
64157;SDS011;50449;51.528;5.076;2023-05-08T14:07:51;91.40;;;85.70;;
64157;SDS011;50449;51.528;5.076;2023-05-08T14:10:16;91.05;;;85.13;;
64157;SDS011;50449;51.528;5.076;2023-05-08T14:12:42;89.32;;;83.50;;
64157;SDS011;50449;51.528;5.076;2023-05-08T14:15:07;87.50;;;81.47;;
64157;SDS011;50449;51.528;5.076;2023-05-08T14:17:33;86.70;;;81.07;;
64157;SDS011;50449;51.528;5.076;2023-05-08T14:19:59;82.97;;;78.32;;
64157;SDS011;50449;51.528;5.076;2023-05-08T14:22:24;86.35;;;80.65;;
64157;SDS011;50449;51.528;5.076;2023-05-08T14:24:50;86.75;;;81.47;;
64157;SDS011;50449;51.528;5.076;2023-05-08T14:27:15;94.03;;;88.03;;
64157;SDS011;50449;51.528;5.076;2023-05-08T14:29:41;87.82;;;82.15;;
64157;SDS011;50449;51.528;5.076;2023-05-08T14:32:06;90.13;;;84.32;;
64157;SDS011;50449;51.528;5.076;2023-05-08T14:34:33;91.07;;;84.85;;
64157;SDS011;50449;51.528;5.076;2023-05-08T14:36:58;87.38;;;82.00;;
64157;SDS011;50449;51.528;5.076;2023-05-08T14:39:24;91.40;;;86.18;;
64157;SDS011;50449;51.528;5.076;2023-05-08T14:41:49;86.95;;;81.18;;
64157;SDS011;50449;51.528;5.076;2023-05-08T14:44:15;90.00;;;84.10;;
64157;SDS011;50449;51.528;5.076;2023-05-08T14:46:40;90.72;;;84.90;;
64157;SDS011;50449;51.528;5.076;2023-05-08T14:49:06;91.05;;;85.00;;
64157;SDS011;50449;51.528;5.076;2023-05-08T14:51:31;95.03;;;88.95;;
64157;SDS011;50449;51.528;5.076;2023-05-08T14:53:56;91.20;;;85.28;;
64157;SDS011;50449;51.528;5.076;2023-05-08T14:56:22;87.80;;;82.30;;
64157;SDS011;50449;51.528;5.076;2023-05-08T14:58:49;89.82;;;84.13;;
64157;SDS011;50449;51.528;5.076;2023-05-08T15:01:15;92.60;;;86.35;;
64157;SDS011;50449;51.528;5.076;2023-05-08T15:03:40;90.20;;;84.28;;
64157;SDS011;50449;51.528;5.076;2023-05-08T15:06:06;91.75;;;86.10;;
64157;SDS011;50449;51.528;5.076;2023-05-08T15:08:32;88.03;;;82.65;;
64157;SDS011;50449;51.528;5.076;2023-05-08T15:10:57;93.65;;;88.03;;
64157;SDS011;50449;51.528;5.076;2023-05-08T15:13:23;96.50;;;90.70;;
64157;SDS011;50449;51.528;5.076;2023-05-08T15:15:48;93.38;;;87.95;;
64157;SDS011;50449;51.528;5.076;2023-05-08T15:18:14;93.68;;;87.25;;
64157;SDS011;50449;51.528;5.076;2023-05-08T15:20:39;94.15;;;88.30;;
64157;SDS011;50449;51.528;5.076;2023-05-08T15:23:05;90.80;;;85.20;;
64157;SDS011;50449;51.528;5.076;2023-05-08T15:25:30;94.40;;;88.32;;